Terminal Aerodrome Forecast
Issued by NWS

Home | Current Version | Previous Version | Text Only | Print | Product List | Glossary Off
Versions: 1 2 3 4 5 6 7 8 9 10 11 12 13 14 15 16 17

000
FTUS43 KGRB 162325
TAFAUW
TAF
KAUW 162325Z 1700/1724 32011KT P6SM SCT025 OVC035
      TEMPO 1700/1704 3SM -SN BKN025
     FM170600 31008KT P6SM BKN028
     FM171400 32010KT P6SM BKN022
     FM171900 32008KT P6SM BKN035=

USA.gov is the U.S. government's official web portal to all federal, state and local government web resources and services.